Fleurus, Belgium
Current Conditions -  °F | °C
As of 3:20 PM on Saturday 22 Nov 2014 (Local Time) from EBCI Reporting Station
Clear Clear  
Wind Chill: 55°   Ceiling: Unl
Heat Index: 55°   Visibility: 6mi
Dew Point: 48°   Wind: 6mph
Humidity: 77%   Direction: 160°SSE
Pressure: 30"   Gusts: NA
Location:  50.48°N, 4.55°E
Report Text: EBCI 221420Z 16005KT 130V210 CAVOK 13/09 Q1016 NOSIG
Loading
Personal Weather Stations






























Interactive Weather Map New forecast layout! Learn more

10-Day Weather Forecast

Advertisements
Track Severe Weather on mobile